sensor_id;sensor_type;location;lat;lon;timestamp;temperature;humidity
12111;DHT22;6119;52.372;8.990;2022-11-15T00:00:06;10.10;99.90
12111;DHT22;6119;52.372;8.990;2022-11-15T00:02:52;10.20;99.90
12111;DHT22;6119;52.372;8.990;2022-11-15T00:05:39;10.20;99.90
12111;DHT22;6119;52.372;8.990;2022-11-15T00:08:29;10.20;99.90
12111;DHT22;6119;52.372;8.990;2022-11-15T00:11:17;10.20;99.90
12111;DHT22;6119;52.372;8.990;2022-11-15T00:14:04;10.20;99.90
12111;DHT22;6119;52.372;8.990;2022-11-15T00:16:50;10.30;99.90
12111;DHT22;6119;52.372;8.990;2022-11-15T00:19:37;10.20;99.90
12111;DHT22;6119;52.372;8.990;2022-11-15T00:22:23;10.30;99.90
12111;DHT22;6119;52.372;8.990;2022-11-15T00:25:10;10.40;99.90
12111;DHT22;6119;52.372;8.990;2022-11-15T00:27:58;10.40;99.90
12111;DHT22;6119;52.372;8.990;2022-11-15T00:30:44;10.40;99.90
12111;DHT22;6119;52.372;8.990;2022-11-15T00:33:31;10.40;99.90
12111;DHT22;6119;52.372;8.990;2022-11-15T00:36:19;10.40;99.90
12111;DHT22;6119;52.372;8.990;2022-11-15T00:39:05;10.40;99.90
12111;DHT22;6119;52.372;8.990;2022-11-15T00:41:52;10.40;99.90
12111;DHT22;6119;52.372;8.990;2022-11-15T00:44:40;10.40;99.90
12111;DHT22;6119;52.372;8.990;2022-11-15T00:47:27;10.40;99.90
12111;DHT22;6119;52.372;8.990;2022-11-15T00:50:14;10.40;99.90
12111;DHT22;6119;52.372;8.990;2022-11-15T00:53:01;10.30;99.90
12111;DHT22;6119;52.372;8.990;2022-11-15T00:55:47;10.40;99.90
12111;DHT22;6119;52.372;8.990;2022-11-15T00:58:34;10.40;99.90
12111;DHT22;6119;52.372;8.990;2022-11-15T01:01:21;10.40;99.90
12111;DHT22;6119;52.372;8.990;2022-11-15T01:04:08;10.40;99.90
12111;DHT22;6119;52.372;8.990;2022-11-15T01:06:55;10.40;99.90
12111;DHT22;6119;52.372;8.990;2022-11-15T01:09:41;10.40;99.90
12111;DHT22;6119;52.372;8.990;2022-11-15T01:12:28;10.50;99.90
12111;DHT22;6119;52.372;8.990;2022-11-15T01:15:14;10.50;99.90
12111;DHT22;6119;52.372;8.990;2022-11-15T01:18:02;10.50;99.90
12111;DHT22;6119;52.372;8.990;2022-11-15T01:20:49;10.50;99.90
12111;DHT22;6119;52.372;8.990;2022-11-15T01:23:36;10.60;99.90
12111;DHT22;6119;52.372;8.990;2022-11-15T01:26:24;10.60;99.90
12111;DHT22;6119;52.372;8.990;2022-11-15T01:29:11;10.60;99.90
12111;DHT22;6119;52.372;8.990;2022-11-15T01:31:58;10.60;99.90
12111;DHT22;6119;52.372;8.990;2022-11-15T01:34:46;10.60;99.90
12111;DHT22;6119;52.372;8.990;2022-11-15T01:37:33;10.60;99.90
12111;DHT22;6119;52.372;8.990;2022-11-15T01:40:21;10.60;99.90
12111;DHT22;6119;52.372;8.990;2022-11-15T01:43:23;10.70;99.90
12111;DHT22;6119;52.372;8.990;2022-11-15T01:46:25;10.70;99.90
12111;DHT22;6119;52.372;8.990;2022-11-15T01:49:16;10.70;99.90
12111;DHT22;6119;52.372;8.990;2022-11-15T01:52:06;10.80;99.90
12111;DHT22;6119;52.372;8.990;2022-11-15T01:54:59;10.80;99.90
12111;DHT22;6119;52.372;8.990;2022-11-15T01:57:49;10.80;99.90
12111;DHT22;6119;52.372;8.990;2022-11-15T02:00:36;10.80;99.90
12111;DHT22;6119;52.372;8.990;2022-11-15T02:03:26;10.90;99.90
12111;DHT22;6119;52.372;8.990;2022-11-15T02:06:17;10.90;99.90
12111;DHT22;6119;52.372;8.990;2022-11-15T02:09:06;10.90;99.90
12111;DHT22;6119;52.372;8.990;2022-11-15T02:11:54;11.00;99.90
12111;DHT22;6119;52.372;8.990;2022-11-15T02:14:44;11.00;99.90
12111;DHT22;6119;52.372;8.990;2022-11-15T02:18:02;11.00;99.90
12111;DHT22;6119;52.372;8.990;2022-11-15T02:21:10;11.00;99.90
12111;DHT22;6119;52.372;8.990;2022-11-15T02:24:24;11.10;99.90
12111;DHT22;6119;52.372;8.990;2022-11-15T02:27:53;11.00;99.90
12111;DHT22;6119;52.372;8.990;2022-11-15T02:30:45;11.10;99.90
12111;DHT22;6119;52.372;8.990;2022-11-15T02:33:38;11.10;99.90
12111;DHT22;6119;52.372;8.990;2022-11-15T02:36:34;11.10;99.90
12111;DHT22;6119;52.372;8.990;2022-11-15T02:39:26;11.20;99.90
12111;DHT22;6119;52.372;8.990;2022-11-15T02:42:17;11.20;99.90
12111;DHT22;6119;52.372;8.990;2022-11-15T02:45:24;11.20;99.90
12111;DHT22;6119;52.372;8.990;2022-11-15T02:48:15;11.30;99.90
12111;DHT22;6119;52.372;8.990;2022-11-15T02:51:02;11.30;99.90
12111;DHT22;6119;52.372;8.990;2022-11-15T02:53:49;11.40;99.90
12111;DHT22;6119;52.372;8.990;2022-11-15T02:56:36;11.40;99.90
12111;DHT22;6119;52.372;8.990;2022-11-15T02:59:59;11.40;99.90
12111;DHT22;6119;52.372;8.990;2022-11-15T03:03:01;11.50;99.90
12111;DHT22;6119;52.372;8.990;2022-11-15T03:06:03;11.50;99.90
12111;DHT22;6119;52.372;8.990;2022-11-15T03:09:00;11.60;99.90
12111;DHT22;6119;52.372;8.990;2022-11-15T03:11:50;11.60;99.90
12111;DHT22;6119;52.372;8.990;2022-11-15T03:14:47;11.70;99.90
12111;DHT22;6119;52.372;8.990;2022-11-15T03:17:41;11.70;99.90
12111;DHT22;6119;52.372;8.990;2022-11-15T03:20:31;11.80;99.90
12111;DHT22;6119;52.372;8.990;2022-11-15T03:23:20;11.80;99.90
12111;DHT22;6119;52.372;8.990;2022-11-15T03:26:11;12.90;99.90
12111;DHT22;6119;52.372;8.990;2022-11-15T03:29:01;11.90;99.90
12111;DHT22;6119;52.372;8.990;2022-11-15T03:31:53;11.90;99.90
12111;DHT22;6119;52.372;8.990;2022-11-15T03:34:44;11.90;99.90
12111;DHT22;6119;52.372;8.990;2022-11-15T03:37:35;11.90;99.90
12111;DHT22;6119;52.372;8.990;2022-11-15T03:40:30;12.00;99.90
12111;DHT22;6119;52.372;8.990;2022-11-15T03:43:28;12.10;99.90
12111;DHT22;6119;52.372;8.990;2022-11-15T03:46:20;12.10;99.90
12111;DHT22;6119;52.372;8.990;2022-11-15T03:49:13;12.10;99.90
12111;DHT22;6119;52.372;8.990;2022-11-15T03:52:02;12.10;99.90
12111;DHT22;6119;52.372;8.990;2022-11-15T03:54:52;12.10;99.90
12111;DHT22;6119;52.372;8.990;2022-11-15T03:57:40;12.10;99.90
12111;DHT22;6119;52.372;8.990;2022-11-15T04:00:27;12.20;99.90
12111;DHT22;6119;52.372;8.990;2022-11-15T04:03:14;12.20;99.90
12111;DHT22;6119;52.372;8.990;2022-11-15T04:06:00;12.20;99.90
12111;DHT22;6119;52.372;8.990;2022-11-15T04:08:47;12.20;99.90
12111;DHT22;6119;52.372;8.990;2022-11-15T04:11:33;12.30;99.90
12111;DHT22;6119;52.372;8.990;2022-11-15T04:14:21;12.30;99.90
12111;DHT22;6119;52.372;8.990;2022-11-15T04:17:08;12.30;99.90
12111;DHT22;6119;52.372;8.990;2022-11-15T04:19:55;12.30;99.90
12111;DHT22;6119;52.372;8.990;2022-11-15T04:23:01;12.40;99.90
12111;DHT22;6119;52.372;8.990;2022-11-15T04:26:07;12.30;99.90
12111;DHT22;6119;52.372;8.990;2022-11-15T04:28:55;12.40;99.90
12111;DHT22;6119;52.372;8.990;2022-11-15T04:32:01;12.40;99.90
12111;DHT22;6119;52.372;8.990;2022-11-15T04:34:47;12.40;99.90
12111;DHT22;6119;52.372;8.990;2022-11-15T04:37:33;12.40;99.90
12111;DHT22;6119;52.372;8.990;2022-11-15T04:40:20;12.40;99.90
12111;DHT22;6119;52.372;8.990;2022-11-15T04:43:06;12.40;99.90
12111;DHT22;6119;52.372;8.990;2022-11-15T04:45:53;12.40;99.90
12111;DHT22;6119;52.372;8.990;2022-11-15T04:48:41;12.40;99.90
12111;DHT22;6119;52.372;8.990;2022-11-15T04:51:27;12.50;99.90
12111;DHT22;6119;52.372;8.990;2022-11-15T04:54:14;12.50;99.90
12111;DHT22;6119;52.372;8.990;2022-11-15T04:57:00;12.50;99.90
12111;DHT22;6119;52.372;8.990;2022-11-15T04:59:47;12.50;99.90
12111;DHT22;6119;52.372;8.990;2022-11-15T05:02:33;12.50;99.90
12111;DHT22;6119;52.372;8.990;2022-11-15T05:05:39;12.50;99.90
12111;DHT22;6119;52.372;8.990;2022-11-15T05:08:26;12.40;99.90
12111;DHT22;6119;52.372;8.990;2022-11-15T05:11:13;12.40;99.90
12111;DHT22;6119;52.372;8.990;2022-11-15T05:14:00;12.40;99.90
12111;DHT22;6119;52.372;8.990;2022-11-15T05:16:46;12.40;99.90
12111;DHT22;6119;52.372;8.990;2022-11-15T05:19:33;12.40;99.90
12111;DHT22;6119;52.372;8.990;2022-11-15T05:22:20;12.40;99.90
12111;DHT22;6119;52.372;8.990;2022-11-15T05:25:08;12.30;99.90
12111;DHT22;6119;52.372;8.990;2022-11-15T05:27:54;12.30;99.90
12111;DHT22;6119;52.372;8.990;2022-11-15T05:30:41;12.30;99.90
12111;DHT22;6119;52.372;8.990;2022-11-15T05:33:27;12.30;99.90
12111;DHT22;6119;52.372;8.990;2022-11-15T05:36:17;12.30;99.90
12111;DHT22;6119;52.372;8.990;2022-11-15T05:39:07;12.30;99.90
12111;DHT22;6119;52.372;8.990;2022-11-15T05:41:56;12.30;99.90
12111;DHT22;6119;52.372;8.990;2022-11-15T05:44:48;12.30;99.90
12111;DHT22;6119;52.372;8.990;2022-11-15T05:47:36;12.30;99.90
12111;DHT22;6119;52.372;8.990;2022-11-15T05:50:23;12.20;99.90
12111;DHT22;6119;52.372;8.990;2022-11-15T05:53:14;12.30;99.90
12111;DHT22;6119;52.372;8.990;2022-11-15T05:56:02;12.30;99.90
12111;DHT22;6119;52.372;8.990;2022-11-15T05:58:49;12.30;99.90
12111;DHT22;6119;52.372;8.990;2022-11-15T06:01:41;12.30;99.90
12111;DHT22;6119;52.372;8.990;2022-11-15T06:04:28;12.30;99.90
12111;DHT22;6119;52.372;8.990;2022-11-15T06:07:15;12.30;99.90
12111;DHT22;6119;52.372;8.990;2022-11-15T06:10:02;12.30;99.90
12111;DHT22;6119;52.372;8.990;2022-11-15T06:12:57;12.30;99.90
12111;DHT22;6119;52.372;8.990;2022-11-15T06:15:44;12.30;99.90
12111;DHT22;6119;52.372;8.990;2022-11-15T06:18:32;12.30;99.90
12111;DHT22;6119;52.372;8.990;2022-11-15T06:21:19;12.40;99.90
12111;DHT22;6119;52.372;8.990;2022-11-15T06:24:06;12.40;99.90
12111;DHT22;6119;52.372;8.990;2022-11-15T06:26:53;12.40;99.90
12111;DHT22;6119;52.372;8.990;2022-11-15T06:29:41;12.40;99.90
12111;DHT22;6119;52.372;8.990;2022-11-15T06:32:29;12.40;99.90
12111;DHT22;6119;52.372;8.990;2022-11-15T06:35:16;12.50;99.90
12111;DHT22;6119;52.372;8.990;2022-11-15T06:38:04;12.40;99.90
12111;DHT22;6119;52.372;8.990;2022-11-15T06:40:51;12.50;99.90
12111;DHT22;6119;52.372;8.990;2022-11-15T06:43:37;12.50;99.90
12111;DHT22;6119;52.372;8.990;2022-11-15T06:46:26;12.50;99.90
12111;DHT22;6119;52.372;8.990;2022-11-15T06:49:12;12.50;99.90
12111;DHT22;6119;52.372;8.990;2022-11-15T06:51:59;12.50;99.90
12111;DHT22;6119;52.372;8.990;2022-11-15T06:54:45;12.60;99.90
12111;DHT22;6119;52.372;8.990;2022-11-15T06:57:32;12.50;99.90
12111;DHT22;6119;52.372;8.990;2022-11-15T07:00:20;12.60;99.90
12111;DHT22;6119;52.372;8.990;2022-11-15T07:03:09;12.60;99.90
12111;DHT22;6119;52.372;8.990;2022-11-15T07:05:56;12.60;99.90
12111;DHT22;6119;52.372;8.990;2022-11-15T07:08:51;12.60;99.90
12111;DHT22;6119;52.372;8.990;2022-11-15T07:11:38;12.60;99.90
12111;DHT22;6119;52.372;8.990;2022-11-15T07:14:25;12.60;99.90
12111;DHT22;6119;52.372;8.990;2022-11-15T07:17:11;12.60;99.90
12111;DHT22;6119;52.372;8.990;2022-11-15T07:19:59;12.60;99.90
12111;DHT22;6119;52.372;8.990;2022-11-15T07:22:46;12.70;99.90
12111;DHT22;6119;52.372;8.990;2022-11-15T07:25:33;12.70;99.90
12111;DHT22;6119;52.372;8.990;2022-11-15T07:28:19;12.70;99.90
12111;DHT22;6119;52.372;8.990;2022-11-15T07:31:08;12.70;99.90
12111;DHT22;6119;52.372;8.990;2022-11-15T07:33:55;12.70;99.90
12111;DHT22;6119;52.372;8.990;2022-11-15T07:36:42;12.70;99.90
12111;DHT22;6119;52.372;8.990;2022-11-15T07:39:29;12.70;99.90
12111;DHT22;6119;52.372;8.990;2022-11-15T07:42:16;12.80;99.90
12111;DHT22;6119;52.372;8.990;2022-11-15T07:45:20;12.80;99.90
12111;DHT22;6119;52.372;8.990;2022-11-15T07:48:06;12.80;99.90
12111;DHT22;6119;52.372;8.990;2022-11-15T07:50:53;12.80;99.90
12111;DHT22;6119;52.372;8.990;2022-11-15T07:53:41;12.80;99.90
12111;DHT22;6119;52.372;8.990;2022-11-15T07:56:27;12.90;99.90
12111;DHT22;6119;52.372;8.990;2022-11-15T07:59:14;12.90;99.90
12111;DHT22;6119;52.372;8.990;2022-11-15T08:02:00;12.90;99.90
12111;DHT22;6119;52.372;8.990;2022-11-15T08:04:47;12.90;99.90
12111;DHT22;6119;52.372;8.990;2022-11-15T08:07:34;12.90;99.90
12111;DHT22;6119;52.372;8.990;2022-11-15T08:10:22;12.90;99.90
12111;DHT22;6119;52.372;8.990;2022-11-15T08:13:10;13.00;99.90
12111;DHT22;6119;52.372;8.990;2022-11-15T08:15:58;13.00;99.90
12111;DHT22;6119;52.372;8.990;2022-11-15T08:18:46;13.10;99.90
12111;DHT22;6119;52.372;8.990;2022-11-15T08:21:32;13.10;99.90
12111;DHT22;6119;52.372;8.990;2022-11-15T08:24:19;13.10;99.90
12111;DHT22;6119;52.372;8.990;2022-11-15T08:27:07;13.10;99.90
12111;DHT22;6119;52.372;8.990;2022-11-15T08:30:00;13.10;99.90
12111;DHT22;6119;52.372;8.990;2022-11-15T08:32:47;13.10;99.90
12111;DHT22;6119;52.372;8.990;2022-11-15T08:35:33;13.10;99.90
12111;DHT22;6119;52.372;8.990;2022-11-15T08:38:20;13.10;99.90
12111;DHT22;6119;52.372;8.990;2022-11-15T08:41:07;13.10;99.90
12111;DHT22;6119;52.372;8.990;2022-11-15T08:43:58;13.20;99.90
12111;DHT22;6119;52.372;8.990;2022-11-15T08:46:45;13.30;99.90
12111;DHT22;6119;52.372;8.990;2022-11-15T08:49:32;13.40;99.90
12111;DHT22;6119;52.372;8.990;2022-11-15T08:52:18;13.40;99.90
12111;DHT22;6119;52.372;8.990;2022-11-15T08:55:06;13.50;99.90
12111;DHT22;6119;52.372;8.990;2022-11-15T08:57:53;13.60;99.90
12111;DHT22;6119;52.372;8.990;2022-11-15T09:00:41;13.50;99.90
12111;DHT22;6119;52.372;8.990;2022-11-15T09:03:27;13.60;99.90
12111;DHT22;6119;52.372;8.990;2022-11-15T09:06:14;13.70;99.90
12111;DHT22;6119;52.372;8.990;2022-11-15T09:09:02;13.80;99.90
12111;DHT22;6119;52.372;8.990;2022-11-15T09:11:49;13.90;99.90
12111;DHT22;6119;52.372;8.990;2022-11-15T09:14:36;14.10;99.90
12111;DHT22;6119;52.372;8.990;2022-11-15T09:17:24;14.20;99.90
12111;DHT22;6119;52.372;8.990;2022-11-15T09:20:11;14.20;99.90
12111;DHT22;6119;52.372;8.990;2022-11-15T09:22:59;14.30;99.90
12111;DHT22;6119;52.372;8.990;2022-11-15T09:25:46;14.40;99.90
12111;DHT22;6119;52.372;8.990;2022-11-15T09:28:33;14.40;99.90
12111;DHT22;6119;52.372;8.990;2022-11-15T09:31:20;14.40;99.90
12111;DHT22;6119;52.372;8.990;2022-11-15T09:34:08;14.40;99.90
12111;DHT22;6119;52.372;8.990;2022-11-15T09:36:55;14.40;99.90
12111;DHT22;6119;52.372;8.990;2022-11-15T09:39:41;14.50;99.90
12111;DHT22;6119;52.372;8.990;2022-11-15T09:42:50;14.60;99.90
12111;DHT22;6119;52.372;8.990;2022-11-15T09:45:47;14.80;99.90
12111;DHT22;6119;52.372;8.990;2022-11-15T09:48:47;14.90;99.90
12111;DHT22;6119;52.372;8.990;2022-11-15T09:51:38;14.90;99.90
12111;DHT22;6119;52.372;8.990;2022-11-15T09:54:33;14.90;99.90
12111;DHT22;6119;52.372;8.990;2022-11-15T09:57:46;15.00;99.90
12111;DHT22;6119;52.372;8.990;2022-11-15T10:00:40;15.10;99.90
12111;DHT22;6119;52.372;8.990;2022-11-15T10:03:34;15.00;99.90
12111;DHT22;6119;52.372;8.990;2022-11-15T10:06:24;15.10;99.90
12111;DHT22;6119;52.372;8.990;2022-11-15T10:09:16;15.10;99.90
12111;DHT22;6119;52.372;8.990;2022-11-15T10:12:09;15.20;99.90
12111;DHT22;6119;52.372;8.990;2022-11-15T10:15:00;15.30;99.90
12111;DHT22;6119;52.372;8.990;2022-11-15T10:18:09;15.40;99.90
12111;DHT22;6119;52.372;8.990;2022-11-15T10:21:02;15.30;99.90
12111;DHT22;6119;52.372;8.990;2022-11-15T10:23:56;15.40;99.90
12111;DHT22;6119;52.372;8.990;2022-11-15T10:26:48;15.50;99.90
12111;DHT22;6119;52.372;8.990;2022-11-15T10:29:35;15.50;99.90
12111;DHT22;6119;52.372;8.990;2022-11-15T10:32:21;15.60;99.90
12111;DHT22;6119;52.372;8.990;2022-11-15T10:35:20;15.60;99.90
12111;DHT22;6119;52.372;8.990;2022-11-15T10:38:08;15.50;99.90
12111;DHT22;6119;52.372;8.990;2022-11-15T10:41:06;15.50;99.90
12111;DHT22;6119;52.372;8.990;2022-11-15T10:47:26;15.70;99.90
12111;DHT22;6119;52.372;8.990;2022-11-15T10:50:27;15.80;99.90
12111;DHT22;6119;52.372;8.990;2022-11-15T10:53:21;15.80;99.90
12111;DHT22;6119;52.372;8.990;2022-11-15T10:56:12;15.90;99.90
12111;DHT22;6119;52.372;8.990;2022-11-15T10:59:02;15.90;99.90
12111;DHT22;6119;52.372;8.990;2022-11-15T11:01:49;16.00;99.90
12111;DHT22;6119;52.372;8.990;2022-11-15T11:04:49;16.10;99.90
12111;DHT22;6119;52.372;8.990;2022-11-15T11:07:36;16.00;99.90
12111;DHT22;6119;52.372;8.990;2022-11-15T11:10:23;16.00;99.90
12111;DHT22;6119;52.372;8.990;2022-11-15T11:13:31;16.00;99.90
12111;DHT22;6119;52.372;8.990;2022-11-15T11:16:31;16.00;99.90
12111;DHT22;6119;52.372;8.990;2022-11-15T11:19:50;16.00;99.90
12111;DHT22;6119;52.372;8.990;2022-11-15T11:22:44;16.00;99.90
12111;DHT22;6119;52.372;8.990;2022-11-15T11:25:36;16.10;99.90
12111;DHT22;6119;52.372;8.990;2022-11-15T11:28:36;16.10;99.90
12111;DHT22;6119;52.372;8.990;2022-11-15T11:31:32;16.20;99.90
12111;DHT22;6119;52.372;8.990;2022-11-15T11:34:33;16.30;99.90
12111;DHT22;6119;52.372;8.990;2022-11-15T11:37:28;16.30;99.90
12111;DHT22;6119;52.372;8.990;2022-11-15T11:40:25;16.30;99.90
12111;DHT22;6119;52.372;8.990;2022-11-15T11:43:18;16.30;99.90
12111;DHT22;6119;52.372;8.990;2022-11-15T11:46:21;16.40;99.90
12111;DHT22;6119;52.372;8.990;2022-11-15T11:49:16;16.30;99.90
12111;DHT22;6119;52.372;8.990;2022-11-15T11:52:10;16.30;99.90
12111;DHT22;6119;52.372;8.990;2022-11-15T11:55:11;16.30;99.90
12111;DHT22;6119;52.372;8.990;2022-11-15T11:58:05;16.30;99.90
12111;DHT22;6119;52.372;8.990;2022-11-15T12:00:54;16.30;99.90
12111;DHT22;6119;52.372;8.990;2022-11-15T12:03:45;16.30;99.90
12111;DHT22;6119;52.372;8.990;2022-11-15T12:06:37;16.30;99.90
12111;DHT22;6119;52.372;8.990;2022-11-15T12:09:32;16.20;99.90
12111;DHT22;6119;52.372;8.990;2022-11-15T12:12:27;16.20;99.90
12111;DHT22;6119;52.372;8.990;2022-11-15T12:15:19;16.30;99.90
12111;DHT22;6119;52.372;8.990;2022-11-15T12:18:08;16.30;99.90
12111;DHT22;6119;52.372;8.990;2022-11-15T12:21:02;16.50;99.90
12111;DHT22;6119;52.372;8.990;2022-11-15T12:23:55;16.40;99.90
12111;DHT22;6119;52.372;8.990;2022-11-15T12:26:49;16.40;99.90
12111;DHT22;6119;52.372;8.990;2022-11-15T12:29:39;16.40;99.90
12111;DHT22;6119;52.372;8.990;2022-11-15T12:32:30;16.40;99.90
12111;DHT22;6119;52.372;8.990;2022-11-15T12:35:25;16.40;99.90
12111;DHT22;6119;52.372;8.990;2022-11-15T12:41:44;16.40;99.90
12111;DHT22;6119;52.372;8.990;2022-11-15T12:44:58;16.40;99.90
12111;DHT22;6119;52.372;8.990;2022-11-15T12:47:46;16.40;99.90
12111;DHT22;6119;52.372;8.990;2022-11-15T12:50:53;16.30;99.90
12111;DHT22;6119;52.372;8.990;2022-11-15T12:53:39;16.40;99.90
12111;DHT22;6119;52.372;8.990;2022-11-15T12:56:27;16.40;99.90
12111;DHT22;6119;52.372;8.990;2022-11-15T12:59:49;16.50;99.90
12111;DHT22;6119;52.372;8.990;2022-11-15T13:02:38;16.50;99.90
12111;DHT22;6119;52.372;8.990;2022-11-15T13:05:57;16.50;99.90
12111;DHT22;6119;52.372;8.990;2022-11-15T13:08:49;16.60;99.90
12111;DHT22;6119;52.372;8.990;2022-11-15T13:11:50;16.50;99.90
12111;DHT22;6119;52.372;8.990;2022-11-15T13:14:45;16.60;99.90
12111;DHT22;6119;52.372;8.990;2022-11-15T13:17:34;16.50;99.90
12111;DHT22;6119;52.372;8.990;2022-11-15T13:20:26;16.60;99.90
12111;DHT22;6119;52.372;8.990;2022-11-15T13:23:15;16.60;99.90
12111;DHT22;6119;52.372;8.990;2022-11-15T13:26:13;16.60;99.90
12111;DHT22;6119;52.372;8.990;2022-11-15T13:29:03;16.50;99.90
12111;DHT22;6119;52.372;8.990;2022-11-15T13:31:51;16.50;99.90
12111;DHT22;6119;52.372;8.990;2022-11-15T13:34:38;16.40;99.90
12111;DHT22;6119;52.372;8.990;2022-11-15T13:37:41;16.40;99.90
12111;DHT22;6119;52.372;8.990;2022-11-15T13:40:29;16.50;99.90
12111;DHT22;6119;52.372;8.990;2022-11-15T13:43:31;16.40;99.90
12111;DHT22;6119;52.372;8.990;2022-11-15T13:46:21;16.40;99.90
12111;DHT22;6119;52.372;8.990;2022-11-15T13:49:10;16.20;99.90
12111;DHT22;6119;52.372;8.990;2022-11-15T13:51:57;16.10;99.90
12111;DHT22;6119;52.372;8.990;2022-11-15T13:54:46;16.00;99.90
12111;DHT22;6119;52.372;8.990;2022-11-15T13:57:39;16.00;99.90
12111;DHT22;6119;52.372;8.990;2022-11-15T14:00:32;15.90;99.90
12111;DHT22;6119;52.372;8.990;2022-11-15T14:03:22;15.90;99.90
12111;DHT22;6119;52.372;8.990;2022-11-15T14:06:14;15.80;99.90
12111;DHT22;6119;52.372;8.990;2022-11-15T14:09:24;15.80;99.90
12111;DHT22;6119;52.372;8.990;2022-11-15T14:12:24;15.80;99.90
12111;DHT22;6119;52.372;8.990;2022-11-15T14:15:24;15.70;99.90
12111;DHT22;6119;52.372;8.990;2022-11-15T14:18:41;15.70;99.90
12111;DHT22;6119;52.372;8.990;2022-11-15T14:21:30;15.70;99.90
12111;DHT22;6119;52.372;8.990;2022-11-15T14:24:20;15.70;99.90
12111;DHT22;6119;52.372;8.990;2022-11-15T14:27:21;15.60;99.90
12111;DHT22;6119;52.372;8.990;2022-11-15T14:30:13;15.60;99.90
12111;DHT22;6119;52.372;8.990;2022-11-15T14:33:01;15.50;99.90
12111;DHT22;6119;52.372;8.990;2022-11-15T14:35:51;15.50;99.90
12111;DHT22;6119;52.372;8.990;2022-11-15T14:38:39;15.50;99.90
12111;DHT22;6119;52.372;8.990;2022-11-15T14:41:27;15.50;99.90
12111;DHT22;6119;52.372;8.990;2022-11-15T14:44:18;15.40;99.90
12111;DHT22;6119;52.372;8.990;2022-11-15T14:47:06;15.50;99.90
12111;DHT22;6119;52.372;8.990;2022-11-15T14:49:52;15.40;99.90
12111;DHT22;6119;52.372;8.990;2022-11-15T14:52:39;15.40;99.90
12111;DHT22;6119;52.372;8.990;2022-11-15T14:55:30;15.40;99.90
12111;DHT22;6119;52.372;8.990;2022-11-15T14:58:17;15.40;99.90
12111;DHT22;6119;52.372;8.990;2022-11-15T15:01:12;15.30;99.90
12111;DHT22;6119;52.372;8.990;2022-11-15T15:03:59;15.20;99.90
12111;DHT22;6119;52.372;8.990;2022-11-15T15:06:45;15.20;99.90
12111;DHT22;6119;52.372;8.990;2022-11-15T15:09:32;15.10;99.90
12111;DHT22;6119;52.372;8.990;2022-11-15T15:12:22;15.10;99.90
12111;DHT22;6119;52.372;8.990;2022-11-15T15:15:13;15.10;99.90
12111;DHT22;6119;52.372;8.990;2022-11-15T15:18:00;15.00;99.90
12111;DHT22;6119;52.372;8.990;2022-11-15T15:20:55;14.90;99.90
12111;DHT22;6119;52.372;8.990;2022-11-15T15:23:42;14.90;99.90
12111;DHT22;6119;52.372;8.990;2022-11-15T15:26:29;14.80;99.90
12111;DHT22;6119;52.372;8.990;2022-11-15T15:29:20;14.70;99.90
12111;DHT22;6119;52.372;8.990;2022-11-15T15:32:08;14.60;99.90
12111;DHT22;6119;52.372;8.990;2022-11-15T15:34:55;14.60;99.90
12111;DHT22;6119;52.372;8.990;2022-11-15T15:37:42;14.50;99.90
12111;DHT22;6119;52.372;8.990;2022-11-15T15:40:31;14.40;99.90
12111;DHT22;6119;52.372;8.990;2022-11-15T15:43:18;14.40;99.90
12111;DHT22;6119;52.372;8.990;2022-11-15T15:46:08;14.40;99.90
12111;DHT22;6119;52.372;8.990;2022-11-15T15:48:55;14.30;99.90
12111;DHT22;6119;52.372;8.990;2022-11-15T15:51:42;14.20;99.90
12111;DHT22;6119;52.372;8.990;2022-11-15T15:54:29;14.30;99.90
12111;DHT22;6119;52.372;8.990;2022-11-15T15:57:15;14.30;99.90
12111;DHT22;6119;52.372;8.990;2022-11-15T16:00:02;14.30;99.90
12111;DHT22;6119;52.372;8.990;2022-11-15T16:02:51;14.20;99.90
12111;DHT22;6119;52.372;8.990;2022-11-15T16:05:37;14.20;99.90
12111;DHT22;6119;52.372;8.990;2022-11-15T16:08:24;14.20;99.90
12111;DHT22;6119;52.372;8.990;2022-11-15T16:11:22;14.20;99.90
12111;DHT22;6119;52.372;8.990;2022-11-15T16:14:08;14.20;99.90
12111;DHT22;6119;52.372;8.990;2022-11-15T16:16:55;14.20;99.90
12111;DHT22;6119;52.372;8.990;2022-11-15T16:19:43;14.10;99.90
12111;DHT22;6119;52.372;8.990;2022-11-15T16:22:30;14.10;99.90
12111;DHT22;6119;52.372;8.990;2022-11-15T16:25:16;14.10;99.90
12111;DHT22;6119;52.372;8.990;2022-11-15T16:28:03;14.00;99.90
12111;DHT22;6119;52.372;8.990;2022-11-15T16:30:59;13.90;99.90
12111;DHT22;6119;52.372;8.990;2022-11-15T16:33:47;14.00;99.90
12111;DHT22;6119;52.372;8.990;2022-11-15T16:36:35;13.90;99.90
12111;DHT22;6119;52.372;8.990;2022-11-15T16:39:22;13.90;99.90
12111;DHT22;6119;52.372;8.990;2022-11-15T16:42:08;13.90;99.90
12111;DHT22;6119;52.372;8.990;2022-11-15T16:44:54;13.80;99.90
12111;DHT22;6119;52.372;8.990;2022-11-15T16:47:41;13.80;99.90
12111;DHT22;6119;52.372;8.990;2022-11-15T16:50:29;13.80;99.90
12111;DHT22;6119;52.372;8.990;2022-11-15T16:53:18;13.80;99.90
12111;DHT22;6119;52.372;8.990;2022-11-15T16:56:17;13.70;99.90
12111;DHT22;6119;52.372;8.990;2022-11-15T16:59:04;13.70;99.90
12111;DHT22;6119;52.372;8.990;2022-11-15T17:01:51;13.70;99.90
12111;DHT22;6119;52.372;8.990;2022-11-15T17:04:38;13.70;99.90
12111;DHT22;6119;52.372;8.990;2022-11-15T17:07:24;13.70;99.90
12111;DHT22;6119;52.372;8.990;2022-11-15T17:10:13;13.60;99.90
12111;DHT22;6119;52.372;8.990;2022-11-15T17:12:59;13.50;99.90
12111;DHT22;6119;52.372;8.990;2022-11-15T17:15:46;13.50;99.90
12111;DHT22;6119;52.372;8.990;2022-11-15T17:18:33;13.50;99.90
12111;DHT22;6119;52.372;8.990;2022-11-15T17:21:21;13.50;99.90
12111;DHT22;6119;52.372;8.990;2022-11-15T17:24:08;13.50;99.90
12111;DHT22;6119;52.372;8.990;2022-11-15T17:26:56;13.40;99.90
12111;DHT22;6119;52.372;8.990;2022-11-15T17:29:43;13.40;99.90
12111;DHT22;6119;52.372;8.990;2022-11-15T17:32:29;13.40;99.90
12111;DHT22;6119;52.372;8.990;2022-11-15T17:35:16;13.40;99.90
12111;DHT22;6119;52.372;8.990;2022-11-15T17:38:02;13.30;99.90
12111;DHT22;6119;52.372;8.990;2022-11-15T17:40:58;13.30;99.90
12111;DHT22;6119;52.372;8.990;2022-11-15T17:43:46;13.30;99.90
12111;DHT22;6119;52.372;8.990;2022-11-15T17:46:33;13.30;99.90
12111;DHT22;6119;52.372;8.990;2022-11-15T17:49:20;13.30;99.90
12111;DHT22;6119;52.372;8.990;2022-11-15T17:52:06;13.30;99.90
12111;DHT22;6119;52.372;8.990;2022-11-15T17:54:53;13.30;99.90
12111;DHT22;6119;52.372;8.990;2022-11-15T17:57:39;13.20;99.90
12111;DHT22;6119;52.372;8.990;2022-11-15T18:00:28;13.30;99.90
12111;DHT22;6119;52.372;8.990;2022-11-15T18:03:15;13.30;99.90
12111;DHT22;6119;52.372;8.990;2022-11-15T18:06:02;13.30;99.90
12111;DHT22;6119;52.372;8.990;2022-11-15T18:08:50;13.30;99.90
12111;DHT22;6119;52.372;8.990;2022-11-15T18:11:39;13.30;99.90
12111;DHT22;6119;52.372;8.990;2022-11-15T18:14:26;13.40;99.90
12111;DHT22;6119;52.372;8.990;2022-11-15T18:17:14;13.30;99.90
12111;DHT22;6119;52.372;8.990;2022-11-15T18:20:04;13.30;99.90